Time,TemperatureF,DewpointF,PressureIn,WindDirection,WindDirectionDegrees,WindSpeedMPH,WindSpeedGustMPH,Humidity,HourlyPrecipIn,Conditions,Clouds,dailyrainin,SolarRadiationWatts/m^2,SoftwareType,DateUTC
2013-02-16 00:01:00,54.0,51.0,-100.00,NE,52,2.0,-999.0,89,0.00,,,-99.99,0.000000,,2013-02-16 05:01:00,
2013-02-16 00:12:00,53.0,50.0,-100.00,North,360,3.0,-999.0,90,0.00,,,-99.99,0.000000,,2013-02-16 05:12:00,
2013-02-16 00:22:00,53.0,50.0,-100.00,North,360,3.0,-999.0,90,0.00,,,-99.99,0.000000,,2013-02-16 05:22:00,
2013-02-16 00:32:00,53.0,51.0,-100.00,NW,304,1.0,-999.0,91,0.00,,,-99.99,0.000000,,2013-02-16 05:32:00,
2013-02-16 00:42:00,53.0,51.0,-100.00,SW,227,0.0,-999.0,91,0.00,,,-99.99,0.000000,,2013-02-16 05:42:00,
2013-02-16 00:52:00,53.0,51.0,-100.00,SW,227,0.0,-999.0,91,0.00,,,-99.99,0.000000,,2013-02-16 05:52:00,
2013-02-16 01:02:00,53.0,51.0,-100.00,South,170,2.0,-999.0,92,0.00,,,-99.99,0.000000,,2013-02-16 06:02:00,
2013-02-16 01:11:00,53.0,51.0,-100.00,NW,311,2.0,-999.0,92,0.00,,,-99.99,0.000000,,2013-02-16 06:11:00,
2013-02-16 01:21:00,53.0,51.0,-100.00,NW,311,2.0,-999.0,92,0.00,,,-99.99,0.000000,,2013-02-16 06:21:00,
2013-02-16 01:32:00,52.0,50.0,-100.00,NNW,328,3.0,-999.0,93,0.00,,,-99.99,0.000000,,2013-02-16 06:32:00,
2013-02-16 01:42:00,52.0,50.0,-100.00,NNE,29,2.0,-999.0,93,0.00,,,-99.99,0.000000,,2013-02-16 06:42:00,
2013-02-16 01:52:00,52.0,50.0,-100.00,NNE,29,2.0,-999.0,93,0.00,,,-99.99,0.000000,,2013-02-16 06:52:00,
2013-02-16 02:02:00,52.0,50.0,-100.00,NNE,31,2.0,-999.0,93,0.00,,,-99.99,0.000000,,2013-02-16 07:02:00,
2013-02-16 02:11:00,52.0,50.0,-100.00,NE,45,2.0,-999.0,93,0.00,,,-99.99,0.000000,,2013-02-16 07:11:00,
2013-02-16 02:21:00,52.0,50.0,-100.00,NE,45,2.0,-999.0,93,0.00,,,-99.99,0.000000,,2013-02-16 07:21:00,
2013-02-16 02:32:00,52.0,50.0,-100.00,NNE,17,3.0,-999.0,93,0.00,,,-99.99,0.000000,,2013-02-16 07:32:00,
2013-02-16 02:42:00,52.0,50.0,-100.00,NNE,32,2.0,-999.0,93,0.00,,,-99.99,0.000000,,2013-02-16 07:42:00,
2013-02-16 02:53:00,52.0,50.0,-100.00,NNE,32,2.0,-999.0,93,0.00,,,-99.99,0.000000,,2013-02-16 07:53:00,
2013-02-16 03:01:00,52.0,50.0,-100.00,NE,35,3.0,-999.0,92,0.00,,,-99.99,0.000000,,2013-02-16 08:01:00,
2013-02-16 03:11:00,53.0,50.0,-100.00,NE,45,3.0,-999.0,90,0.00,,,-99.99,0.000000,,2013-02-16 08:11:00,
2013-02-16 03:21:00,53.0,50.0,-100.00,NE,45,3.0,-999.0,90,0.00,,,-99.99,0.000000,,2013-02-16 08:21:00,
2013-02-16 03:31:00,53.0,50.0,-100.00,NE,35,5.0,-999.0,89,0.00,,,-99.99,0.000000,,2013-02-16 08:31:00,
2013-02-16 03:42:00,53.0,49.0,-100.00,NNE,33,4.0,-999.0,87,0.00,,,-99.99,0.000000,,2013-02-16 08:42:00,
2013-02-16 03:52:00,53.0,49.0,-100.00,NNE,33,4.0,-999.0,87,0.00,,,-99.99,0.000000,,2013-02-16 08:52:00,
2013-02-16 04:01:00,52.0,49.0,-100.00,NNE,12,3.0,-999.0,87,0.00,,,-99.99,0.000000,,2013-02-16 09:01:00,
2013-02-16 04:11:00,52.0,49.0,-100.00,North,3,2.0,-999.0,88,0.00,,,-99.99,0.000000,,2013-02-16 09:11:00,
2013-02-16 04:21:00,52.0,49.0,-100.00,North,3,2.0,-999.0,88,0.00,,,-99.99,0.000000,,2013-02-16 09:21:00,
2013-02-16 04:32:00,52.0,49.0,-100.00,North,349,2.0,-999.0,89,0.00,,,-99.99,0.000000,,2013-02-16 09:32:00,
2013-02-16 04:42:00,51.0,48.0,-100.00,West,262,1.0,-999.0,90,0.00,,,-99.99,0.000000,,2013-02-16 09:42:00,
2013-02-16 04:52:00,51.0,48.0,-100.00,West,262,1.0,-999.0,90,0.00,,,-99.99,0.000000,,2013-02-16 09:52:00,
2013-02-16 05:01:00,51.0,48.0,-100.00,NW,305,2.0,-999.0,91,0.00,,,-99.99,0.000000,,2013-02-16 10:01:00,
2013-02-16 05:11:00,50.0,48.0,-100.00,NNW,327,1.0,-999.0,92,0.00,,,-99.99,0.000000,,2013-02-16 10:11:00,
2013-02-16 05:21:00,50.0,48.0,-100.00,NNW,327,1.0,-999.0,92,0.00,,,-99.99,0.000000,,2013-02-16 10:21:00,
2013-02-16 05:31:00,50.0,48.0,-100.00,WNW,301,3.0,-999.0,93,0.00,,,-99.99,0.000000,,2013-02-16 10:31:00,
2013-02-16 05:42:00,51.0,49.0,-100.00,NW,319,6.0,-999.0,93,0.00,,,-99.99,0.000000,,2013-02-16 10:42:00,
2013-02-16 05:52:00,51.0,49.0,-100.00,NW,319,6.0,-999.0,93,0.00,,,-99.99,0.000000,,2013-02-16 10:52:00,
2013-02-16 06:02:00,51.0,49.0,-100.00,NW,318,7.0,-999.0,93,0.00,,,-99.99,0.000000,,2013-02-16 11:02:00,
2013-02-16 06:11:00,51.0,49.0,-100.00,NW,313,6.0,-999.0,93,0.00,,,-99.99,0.000000,,2013-02-16 11:11:00,
2013-02-16 06:22:00,51.0,49.0,-100.00,NW,313,6.0,-999.0,93,0.00,,,-99.99,0.000000,,2013-02-16 11:22:00,
2013-02-16 06:32:00,50.0,49.0,-100.00,NW,311,5.0,-999.0,94,0.00,,,-99.99,0.000000,,2013-02-16 11:32:00,
2013-02-16 06:42:00,50.0,49.0,-100.00,NW,318,5.0,-999.0,94,0.00,,,-99.99,0.000000,,2013-02-16 11:42:00,
2013-02-16 06:52:00,50.0,49.0,-100.00,NW,318,5.0,-999.0,94,0.00,,,-99.99,0.000000,,2013-02-16 11:52:00,
2013-02-16 07:02:00,50.0,48.0,-100.00,NW,322,3.0,-999.0,94,0.00,,,-99.99,0.000000,,2013-02-16 12:02:00,
2013-02-16 07:12:00,50.0,48.0,-100.00,WNW,292,1.0,-999.0,94,0.00,,,-99.99,0.400000,,2013-02-16 12:12:00,
2013-02-16 07:22:00,50.0,48.0,-100.00,WNW,292,1.0,-999.0,94,0.00,,,-99.99,0.400000,,2013-02-16 12:22:00,
2013-02-16 07:32:00,50.0,48.0,-100.00,WNW,300,2.0,-999.0,95,0.00,,,-99.99,3.500000,,2013-02-16 12:32:00,
2013-02-16 07:42:00,50.0,49.0,-100.00,WNW,291,1.0,-999.0,95,0.00,,,-99.99,19.900000,,2013-02-16 12:42:00,
2013-02-16 07:52:00,50.0,49.0,-100.00,WNW,291,1.0,-999.0,95,0.00,,,-99.99,19.900000,,2013-02-16 12:52:00,
2013-02-16 08:02:00,51.0,49.0,-100.00,WNW,303,2.0,-999.0,95,0.00,,,-99.99,41.099998,,2013-02-16 13:02:00,
2013-02-16 08:12:00,51.0,50.0,-100.00,WNW,282,1.0,-999.0,95,0.00,,,-99.99,53.000000,,2013-02-16 13:12:00,
2013-02-16 08:21:00,51.0,50.0,-100.00,WNW,282,1.0,-999.0,95,0.00,,,-99.99,53.000000,,2013-02-16 13:21:00,
2013-02-16 08:32:00,53.0,51.0,-100.00,NW,320,1.0,-999.0,95,0.00,,,-99.99,77.800003,,2013-02-16 13:32:00,
2013-02-16 08:41:00,54.0,52.0,-100.00,WNW,285,2.0,-999.0,95,0.00,,,-99.99,88.500000,,2013-02-16 13:41:00,
2013-02-16 08:52:00,54.0,52.0,-100.00,WNW,285,2.0,-999.0,95,0.00,,,-99.99,88.500000,,2013-02-16 13:52:00,
2013-02-16 09:01:00,55.0,53.0,-100.00,WNW,283,3.0,-999.0,94,0.00,,,-99.99,117.800003,,2013-02-16 14:01:00,
2013-02-16 09:11:00,55.0,53.0,-100.00,West,281,4.0,-999.0,91,0.00,,,-99.99,192.000000,,2013-02-16 14:11:00,
2013-02-16 09:21:00,55.0,53.0,-100.00,West,281,4.0,-999.0,91,0.00,,,-99.99,192.000000,,2013-02-16 14:21:00,
2013-02-16 09:32:00,57.0,53.0,-100.00,West,268,5.0,-999.0,83,0.00,,,-99.99,365.799988,,2013-02-16 14:32:00,
2013-02-16 09:42:00,58.0,51.0,-100.00,West,268,6.0,-999.0,76,0.00,,,-99.99,330.399994,,2013-02-16 14:42:00,
2013-02-16 09:52:00,58.0,51.0,-100.00,West,268,6.0,-999.0,76,0.00,,,-99.99,330.399994,,2013-02-16 14:52:00,
2013-02-16 10:02:00,59.0,51.0,-100.00,West,261,5.0,-999.0,73,0.00,,,-99.99,390.000000,,2013-02-16 15:02:00,
2013-02-16 10:11:00,60.0,50.0,-100.00,West,278,7.0,-999.0,70,0.00,,,-99.99,348.700012,,2013-02-16 15:11:00,
2013-02-16 10:22:00,60.0,50.0,-100.00,West,278,7.0,-999.0,70,0.00,,,-99.99,348.700012,,2013-02-16 15:22:00,
2013-02-16 10:32:00,60.0,49.0,-100.00,West,281,7.0,-999.0,66,0.00,,,-99.99,453.299988,,2013-02-16 15:32:00,
2013-02-16 10:42:00,62.0,48.0,-100.00,West,280,9.0,-999.0,61,0.00,,,-99.99,525.099976,,2013-02-16 15:42:00,
2013-02-16 10:52:00,62.0,48.0,-100.00,West,280,9.0,-999.0,61,0.00,,,-99.99,525.099976,,2013-02-16 15:52:00,
2013-02-16 11:01:00,62.0,47.0,-100.00,WNW,285,9.0,-999.0,57,0.00,,,-99.99,552.400024,,2013-02-16 16:01:00,
2013-02-16 11:11:00,62.0,46.0,-100.00,West,280,9.0,-999.0,54,0.00,,,-99.99,543.400024,,2013-02-16 16:11:00,
2013-02-16 11:21:00,62.0,46.0,-100.00,West,280,9.0,-999.0,54,0.00,,,-99.99,543.400024,,2013-02-16 16:21:00,
2013-02-16 11:32:00,63.0,45.0,-100.00,West,277,9.0,-999.0,52,0.00,,,-99.99,568.700012,,2013-02-16 16:32:00,
2013-02-16 11:42:00,64.0,44.0,-100.00,West,277,10.0,-999.0,49,0.00,,,-99.99,586.400024,,2013-02-16 16:42:00,
2013-02-16 11:52:00,64.0,44.0,-100.00,West,277,10.0,-999.0,49,0.00,,,-99.99,586.400024,,2013-02-16 16:52:00,
2013-02-16 12:01:00,65.0,43.0,-100.00,NW,305,15.0,-999.0,43,0.00,,,-99.99,661.900024,,2013-02-16 17:01:00,
2013-02-16 12:11:00,65.0,42.0,-100.00,WNW,303,15.0,-999.0,43,0.00,,,-99.99,667.400024,,2013-02-16 17:11:00,
2013-02-16 12:22:00,65.0,42.0,-100.00,WNW,303,15.0,-999.0,43,0.00,,,-99.99,667.400024,,2013-02-16 17:22:00,
2013-02-16 12:32:00,66.0,42.0,-100.00,NW,306,16.0,-999.0,41,0.00,,,-99.99,702.000000,,2013-02-16 17:32:00,
2013-02-16 12:42:00,66.0,42.0,-100.00,WNW,291,14.0,-999.0,40,0.00,,,-99.99,760.000000,,2013-02-16 17:42:00,
2013-02-16 12:52:00,66.0,42.0,-100.00,WNW,291,14.0,-999.0,40,0.00,,,-99.99,760.000000,,2013-02-16 17:52:00,
2013-02-16 13:02:00,66.0,42.0,-100.00,WNW,287,14.0,-999.0,41,0.00,,,-99.99,777.000000,,2013-02-16 18:02:00,
2013-02-16 13:11:00,67.0,44.0,-100.00,West,280,14.0,-999.0,43,0.00,,,-99.99,776.000000,,2013-02-16 18:11:00,
2013-02-16 13:21:00,67.0,44.0,-100.00,West,280,14.0,-999.0,43,0.00,,,-99.99,776.000000,,2013-02-16 18:21:00,
2013-02-16 13:33:00,67.0,45.0,-100.00,WNW,288,15.0,-999.0,44,0.00,,,-99.99,558.400024,,2013-02-16 18:33:00,
2013-02-16 13:42:00,67.0,45.0,-100.00,WNW,288,13.0,-999.0,45,0.00,,,-99.99,623.599976,,2013-02-16 18:42:00,
2013-02-16 13:52:00,67.0,45.0,-100.00,WNW,288,13.0,-999.0,45,0.00,,,-99.99,623.599976,,2013-02-16 18:52:00,
2013-02-16 14:02:00,67.0,46.0,-100.00,WNW,284,15.0,-999.0,46,0.00,,,-99.99,593.500000,,2013-02-16 19:02:00,
2013-02-16 14:11:00,66.0,44.0,-100.00,WNW,287,17.0,-999.0,44,0.00,,,-99.99,404.100006,,2013-02-16 19:11:00,
2013-02-16 14:21:00,66.0,44.0,-100.00,WNW,287,17.0,-999.0,44,0.00,,,-99.99,404.100006,,2013-02-16 19:21:00,
2013-02-16 14:31:00,66.0,43.0,-100.00,WNW,288,17.0,-999.0,42,0.00,,,-99.99,262.200012,,2013-02-16 19:31:00,
2013-02-16 14:42:00,65.0,42.0,-100.00,WNW,288,16.0,-999.0,42,0.00,,,-99.99,374.899994,,2013-02-16 19:42:00,
2013-02-16 14:52:00,65.0,42.0,-100.00,WNW,288,16.0,-999.0,42,0.00,,,-99.99,374.899994,,2013-02-16 19:52:00,
2013-02-16 15:01:00,67.0,42.0,-100.00,WNW,287,16.0,-999.0,39,0.00,,,-99.99,710.000000,,2013-02-16 20:01:00,
2013-02-16 15:11:00,66.0,41.0,-100.00,WNW,285,16.0,-999.0,40,0.00,,,-99.99,506.000000,,2013-02-16 20:11:00,
2013-02-16 15:21:00,66.0,41.0,-100.00,WNW,285,16.0,-999.0,40,0.00,,,-99.99,506.000000,,2013-02-16 20:21:00,
2013-02-16 15:32:00,65.0,43.0,-100.00,West,280,16.0,-999.0,44,0.00,,,-99.99,365.100006,,2013-02-16 20:32:00,
2013-02-16 15:42:00,64.0,43.0,-100.00,WNW,282,17.0,-999.0,46,0.00,,,-99.99,395.899994,,2013-02-16 20:42:00,
2013-02-16 15:52:00,64.0,43.0,-100.00,WNW,282,17.0,-999.0,46,0.00,,,-99.99,395.899994,,2013-02-16 20:52:00,
2013-02-16 16:02:00,65.0,43.0,-100.00,West,278,16.0,-999.0,44,0.00,,,-99.99,524.099976,,2013-02-16 21:02:00,
2013-02-16 16:11:00,63.0,44.0,-100.00,WNW,297,17.0,-999.0,51,0.00,,,-99.99,129.199997,,2013-02-16 21:11:00,
2013-02-16 16:21:00,63.0,44.0,-100.00,WNW,297,17.0,-999.0,51,0.00,,,-99.99,129.199997,,2013-02-16 21:21:00,
2013-02-16 16:32:00,62.0,43.0,-100.00,WNW,297,19.0,-999.0,48,0.00,,,-99.99,388.399994,,2013-02-16 21:32:00,
2013-02-16 16:42:00,61.0,42.0,-100.00,WNW,289,21.0,-999.0,49,0.00,,,-99.99,234.399994,,2013-02-16 21:42:00,
2013-02-16 16:52:00,61.0,42.0,-100.00,WNW,289,21.0,-999.0,49,0.00,,,-99.99,234.399994,,2013-02-16 21:52:00,
2013-02-16 17:01:00,61.0,43.0,-100.00,WNW,288,18.0,-999.0,50,0.00,,,-99.99,375.700012,,2013-02-16 22:01:00,
2013-02-16 17:11:00,60.0,42.0,-100.00,WNW,288,18.0,-999.0,51,0.00,,,-99.99,308.600006,,2013-02-16 22:11:00,
2013-02-16 17:21:00,60.0,42.0,-100.00,WNW,288,18.0,-999.0,51,0.00,,,-99.99,308.600006,,2013-02-16 22:21:00,
2013-02-16 17:32:00,60.0,42.0,-100.00,WNW,298,15.0,-999.0,51,0.00,,,-99.99,271.600006,,2013-02-16 22:32:00,
2013-02-16 17:42:00,60.0,40.0,-100.00,WNW,297,15.0,-999.0,48,0.00,,,-99.99,214.800003,,2013-02-16 22:42:00,
2013-02-16 17:52:00,60.0,40.0,-100.00,WNW,297,15.0,-999.0,48,0.00,,,-99.99,214.800003,,2013-02-16 22:52:00,
2013-02-16 18:02:00,59.0,34.0,-100.00,WNW,284,18.0,-999.0,38,0.00,,,-99.99,145.600006,,2013-02-16 23:02:00,
2013-02-16 18:11:00,58.0,32.0,-100.00,WNW,288,18.0,-999.0,37,0.00,,,-99.99,87.599998,,2013-02-16 23:11:00,
2013-02-16 18:21:00,58.0,32.0,-100.00,WNW,288,18.0,-999.0,37,0.00,,,-99.99,87.599998,,2013-02-16 23:21:00,
2013-02-16 18:31:00,57.0,31.0,-100.00,WNW,294,16.0,-999.0,38,0.00,,,-99.99,26.700001,,2013-02-16 23:31:00,
2013-02-16 18:42:00,56.0,33.0,-100.00,WNW,292,17.0,-999.0,42,0.00,,,-99.99,2.800000,,2013-02-16 23:42:00,
2013-02-16 18:52:00,56.0,33.0,-100.00,WNW,292,17.0,-999.0,42,0.00,,,-99.99,2.800000,,2013-02-16 23:52:00,
2013-02-16 19:02:00,55.0,36.0,-100.00,WNW,292,17.0,-999.0,47,0.00,,,-99.99,0.200000,,2013-02-17 00:02:00,
2013-02-16 19:12:00,55.0,37.0,-100.00,WNW,292,13.0,-999.0,51,0.00,,,-99.99,0.000000,,2013-02-17 00:12:00,
2013-02-16 19:22:00,55.0,37.0,-100.00,WNW,292,13.0,-999.0,51,0.00,,,-99.99,0.000000,,2013-02-17 00:22:00,
2013-02-16 19:32:00,54.0,37.0,-100.00,WNW,296,15.0,-999.0,52,0.00,,,-99.99,0.000000,,2013-02-17 00:32:00,
2013-02-16 19:42:00,54.0,36.0,-100.00,WNW,293,16.0,-999.0,51,0.00,,,-99.99,0.000000,,2013-02-17 00:42:00,
2013-02-16 19:52:00,54.0,36.0,-100.00,WNW,293,16.0,-999.0,51,0.00,,,-99.99,0.000000,,2013-02-17 00:52:00,
2013-02-16 20:01:00,54.0,37.0,-100.00,WNW,292,14.0,-999.0,52,0.00,,,-99.99,0.000000,,2013-02-17 01:01:00,
2013-02-16 20:11:00,53.0,37.0,-100.00,WNW,296,13.0,-999.0,53,0.00,,,-99.99,0.000000,,2013-02-17 01:11:00,
2013-02-16 20:21:00,53.0,37.0,-100.00,WNW,296,13.0,-999.0,53,0.00,,,-99.99,0.000000,,2013-02-17 01:21:00,
2013-02-16 20:31:00,52.0,38.0,-100.00,NW,307,9.0,-999.0,57,0.00,,,-99.99,0.000000,,2013-02-17 01:31:00,
2013-02-16 20:41:00,51.0,38.0,-100.00,WNW,301,7.0,-999.0,61,0.00,,,-99.99,0.000000,,2013-02-17 01:41:00,
2013-02-16 20:52:00,51.0,38.0,-100.00,WNW,301,7.0,-999.0,61,0.00,,,-99.99,0.000000,,2013-02-17 01:52:00,
2013-02-16 21:01:00,52.0,39.0,-100.00,WNW,294,8.0,-999.0,61,0.00,,,-99.99,0.000000,,2013-02-17 02:01:00,
2013-02-16 21:11:00,53.0,39.0,-100.00,WNW,290,8.0,-999.0,58,0.00,,,-99.99,0.000000,,2013-02-17 02:11:00,
2013-02-16 21:21:00,53.0,39.0,-100.00,WNW,290,8.0,-999.0,58,0.00,,,-99.99,0.000000,,2013-02-17 02:21:00,
2013-02-16 21:31:00,53.0,39.0,-100.00,WNW,297,8.0,-999.0,58,0.00,,,-99.99,0.000000,,2013-02-17 02:31:00,
2013-02-16 21:42:00,53.0,39.0,-100.00,NW,308,9.0,-999.0,59,0.00,,,-99.99,0.000000,,2013-02-17 02:42:00,
2013-02-16 21:52:00,53.0,39.0,-100.00,NW,308,9.0,-999.0,59,0.00,,,-99.99,0.000000,,2013-02-17 02:52:00,
2013-02-16 22:02:00,52.0,39.0,-100.00,NW,305,10.0,-999.0,61,0.00,,,-99.99,0.000000,,2013-02-17 03:02:00,
2013-02-16 22:11:00,53.0,40.0,-100.00,WNW,298,10.0,-999.0,62,0.00,,,-99.99,0.000000,,2013-02-17 03:11:00,
2013-02-16 22:21:00,53.0,40.0,-100.00,WNW,298,10.0,-999.0,62,0.00,,,-99.99,0.000000,,2013-02-17 03:21:00,
2013-02-16 22:31:00,53.0,38.0,-100.00,NW,311,14.0,-999.0,57,0.00,,,-99.99,0.000000,,2013-02-17 03:31:00,
2013-02-16 22:42:00,52.0,34.0,-100.00,NW,315,15.0,-999.0,50,0.00,,,-99.99,0.000000,,2013-02-17 03:42:00,
2013-02-16 22:52:00,52.0,34.0,-100.00,NW,315,15.0,-999.0,50,0.00,,,-99.99,0.000000,,2013-02-17 03:52:00,
2013-02-16 23:01:00,51.0,31.0,-100.00,NW,318,14.0,-999.0,46,0.00,,,-99.99,0.000000,,2013-02-17 04:01:00,
2013-02-16 23:11:00,50.0,30.0,-100.00,NW,322,14.0,-999.0,45,0.00,,,-99.99,0.000000,,2013-02-17 04:11:00,
2013-02-16 23:21:00,50.0,30.0,-100.00,NW,322,14.0,-999.0,45,0.00,,,-99.99,0.000000,,2013-02-17 04:21:00,
2013-02-16 23:31:00,50.0,29.0,-100.00,NW,323,15.0,-999.0,44,0.00,,,-99.99,0.000000,,2013-02-17 04:31:00,
2013-02-16 23:41:00,50.0,27.0,-100.00,NNW,327,17.0,-999.0,41,0.00,,,-99.99,0.000000,,2013-02-17 04:41:00,
2013-02-16 23:52:00,50.0,27.0,-100.00,NNW,327,17.0,-999.0,41,0.00,,,-99.99,0.000000,,2013-02-17 04:52:00,